sensor_id;sensor_type;location;lat;lon;timestamp;temperature;humidity
20372;DHT22;42924;37.564;-122.048;2022-07-29T00:02:03;34.70;99.90
20372;DHT22;42924;37.564;-122.048;2022-07-29T00:04:36;34.70;99.90
20372;DHT22;42924;37.564;-122.048;2022-07-29T00:07:09;34.90;99.90
20372;DHT22;42924;37.564;-122.048;2022-07-29T00:09:43;35.40;99.90
20372;DHT22;42924;37.564;-122.048;2022-07-29T00:12:23;35.40;99.90
20372;DHT22;42924;37.564;-122.048;2022-07-29T00:14:54;35.10;99.90
20372;DHT22;42924;37.564;-122.048;2022-07-29T00:17:26;35.10;99.90
20372;DHT22;42924;37.564;-122.048;2022-07-29T00:19:58;35.40;99.90
20372;DHT22;42924;37.564;-122.048;2022-07-29T00:22:29;35.20;99.90
20372;DHT22;42924;37.564;-122.048;2022-07-29T00:24:58;34.90;99.90
20372;DHT22;42924;37.564;-122.048;2022-07-29T00:27:29;34.70;99.90
20372;DHT22;42924;37.564;-122.048;2022-07-29T00:30:00;34.70;99.90
20372;DHT22;42924;37.564;-122.048;2022-07-29T00:32:32;34.80;99.90
20372;DHT22;42924;37.564;-122.048;2022-07-29T00:35:05;34.60;99.90
20372;DHT22;42924;37.564;-122.048;2022-07-29T00:37:55;34.50;99.90
20372;DHT22;42924;37.564;-122.048;2022-07-29T00:40:25;34.40;99.90
20372;DHT22;42924;37.564;-122.048;2022-07-29T00:42:58;34.30;99.90
20372;DHT22;42924;37.564;-122.048;2022-07-29T00:45:30;34.30;99.90
20372;DHT22;42924;37.564;-122.048;2022-07-29T00:48:02;34.20;99.90
20372;DHT22;42924;37.564;-122.048;2022-07-29T00:50:37;34.10;99.90
20372;DHT22;42924;37.564;-122.048;2022-07-29T00:53:09;34.00;99.90
20372;DHT22;42924;37.564;-122.048;2022-07-29T00:55:46;34.00;99.90
20372;DHT22;42924;37.564;-122.048;2022-07-29T00:58:17;34.00;99.90
20372;DHT22;42924;37.564;-122.048;2022-07-29T01:00:49;34.00;99.90
20372;DHT22;42924;37.564;-122.048;2022-07-29T01:03:20;33.80;99.90
20372;DHT22;42924;37.564;-122.048;2022-07-29T01:05:56;33.80;99.90
20372;DHT22;42924;37.564;-122.048;2022-07-29T01:08:35;33.70;99.90
20372;DHT22;42924;37.564;-122.048;2022-07-29T01:11:17;33.70;99.90
20372;DHT22;42924;37.564;-122.048;2022-07-29T01:13:48;33.70;99.90
20372;DHT22;42924;37.564;-122.048;2022-07-29T01:16:32;33.70;99.90
20372;DHT22;42924;37.564;-122.048;2022-07-29T01:22:35;33.70;99.90
20372;DHT22;42924;37.564;-122.048;2022-07-29T01:25:20;33.70;99.90
20372;DHT22;42924;37.564;-122.048;2022-07-29T01:31:22;33.50;99.90
20372;DHT22;42924;37.564;-122.048;2022-07-29T01:34:01;33.40;99.90
20372;DHT22;42924;37.564;-122.048;2022-07-29T01:36:37;33.40;99.90
20372;DHT22;42924;37.564;-122.048;2022-07-29T01:39:27;33.40;99.90
20372;DHT22;42924;37.564;-122.048;2022-07-29T01:44:54;33.20;99.90
20372;DHT22;42924;37.564;-122.048;2022-07-29T01:47:43;33.10;99.90
20372;DHT22;42924;37.564;-122.048;2022-07-29T01:50:17;33.10;99.90
20372;DHT22;42924;37.564;-122.048;2022-07-29T01:53:00;33.10;99.90
20372;DHT22;42924;37.564;-122.048;2022-07-29T01:55:36;33.00;99.90
20372;DHT22;42924;37.564;-122.048;2022-07-29T01:58:09;33.00;99.90
20372;DHT22;42924;37.564;-122.048;2022-07-29T02:00:45;33.00;99.90
20372;DHT22;42924;37.564;-122.048;2022-07-29T02:03:17;32.90;99.90
20372;DHT22;42924;37.564;-122.048;2022-07-29T02:05:50;32.90;99.90
20372;DHT22;42924;37.564;-122.048;2022-07-29T02:08:23;32.90;99.90
20372;DHT22;42924;37.564;-122.048;2022-07-29T02:10:55;32.80;99.90
20372;DHT22;42924;37.564;-122.048;2022-07-29T02:13:28;32.80;99.90
20372;DHT22;42924;37.564;-122.048;2022-07-29T02:16:06;32.70;99.90
20372;DHT22;42924;37.564;-122.048;2022-07-29T02:18:40;32.70;99.90
20372;DHT22;42924;37.564;-122.048;2022-07-29T02:21:21;32.60;99.90
20372;DHT22;42924;37.564;-122.048;2022-07-29T02:23:55;32.60;99.90
20372;DHT22;42924;37.564;-122.048;2022-07-29T02:26:26;32.50;99.90
20372;DHT22;42924;37.564;-122.048;2022-07-29T02:29:01;32.50;99.90
20372;DHT22;42924;37.564;-122.048;2022-07-29T02:31:34;32.50;99.90
20372;DHT22;42924;37.564;-122.048;2022-07-29T02:34:09;32.50;99.90
20372;DHT22;42924;37.564;-122.048;2022-07-29T02:36:46;32.40;99.90
20372;DHT22;42924;37.564;-122.048;2022-07-29T02:39:19;32.30;99.90
20372;DHT22;42924;37.564;-122.048;2022-07-29T02:41:58;32.30;99.90
20372;DHT22;42924;37.564;-122.048;2022-07-29T02:44:30;32.20;99.90
20372;DHT22;42924;37.564;-122.048;2022-07-29T02:47:13;32.10;99.90
20372;DHT22;42924;37.564;-122.048;2022-07-29T02:50:09;32.10;99.90
20372;DHT22;42924;37.564;-122.048;2022-07-29T02:53:22;32.10;99.90
20372;DHT22;42924;37.564;-122.048;2022-07-29T02:56:16;32.00;99.90
20372;DHT22;42924;37.564;-122.048;2022-07-29T02:59:08;31.90;99.90
20372;DHT22;42924;37.564;-122.048;2022-07-29T03:01:42;31.90;99.90
20372;DHT22;42924;37.564;-122.048;2022-07-29T03:04:17;31.80;99.90
20372;DHT22;42924;37.564;-122.048;2022-07-29T03:06:51;31.80;99.90
20372;DHT22;42924;37.564;-122.048;2022-07-29T03:09:25;31.70;99.90
20372;DHT22;42924;37.564;-122.048;2022-07-29T03:12:04;31.60;99.90
20372;DHT22;42924;37.564;-122.048;2022-07-29T03:14:35;31.60;99.90
20372;DHT22;42924;37.564;-122.048;2022-07-29T03:17:07;31.50;99.90
20372;DHT22;42924;37.564;-122.048;2022-07-29T03:19:39;31.40;99.90
20372;DHT22;42924;37.564;-122.048;2022-07-29T03:22:09;31.40;99.90
20372;DHT22;42924;37.564;-122.048;2022-07-29T03:24:41;31.40;99.90
20372;DHT22;42924;37.564;-122.048;2022-07-29T03:27:14;31.30;99.90
20372;DHT22;42924;37.564;-122.048;2022-07-29T03:29:45;31.20;99.90
20372;DHT22;42924;37.564;-122.048;2022-07-29T03:32:18;31.10;99.90
20372;DHT22;42924;37.564;-122.048;2022-07-29T03:34:54;31.10;99.90
20372;DHT22;42924;37.564;-122.048;2022-07-29T03:37:25;31.00;99.90
20372;DHT22;42924;37.564;-122.048;2022-07-29T03:39:56;31.00;99.90
20372;DHT22;42924;37.564;-122.048;2022-07-29T03:42:31;31.00;99.90
20372;DHT22;42924;37.564;-122.048;2022-07-29T03:45:06;30.90;99.90
20372;DHT22;42924;37.564;-122.048;2022-07-29T03:47:47;30.80;99.90
20372;DHT22;42924;37.564;-122.048;2022-07-29T03:50:22;30.70;99.90
20372;DHT22;42924;37.564;-122.048;2022-07-29T03:52:56;30.70;99.90
20372;DHT22;42924;37.564;-122.048;2022-07-29T03:55:29;30.70;99.90
20372;DHT22;42924;37.564;-122.048;2022-07-29T03:58:03;30.60;99.90
20372;DHT22;42924;37.564;-122.048;2022-07-29T04:00:37;30.70;99.90
20372;DHT22;42924;37.564;-122.048;2022-07-29T04:03:09;30.60;99.90
20372;DHT22;42924;37.564;-122.048;2022-07-29T04:05:39;30.50;99.90
20372;DHT22;42924;37.564;-122.048;2022-07-29T04:08:09;30.50;99.90
20372;DHT22;42924;37.564;-122.048;2022-07-29T04:10:40;30.40;99.90
20372;DHT22;42924;37.564;-122.048;2022-07-29T04:13:13;30.40;99.90
20372;DHT22;42924;37.564;-122.048;2022-07-29T04:15:43;30.40;99.90
20372;DHT22;42924;37.564;-122.048;2022-07-29T04:18:16;30.20;99.90
20372;DHT22;42924;37.564;-122.048;2022-07-29T04:20:46;30.20;99.90
20372;DHT22;42924;37.564;-122.048;2022-07-29T04:23:16;30.20;99.90
20372;DHT22;42924;37.564;-122.048;2022-07-29T04:25:50;30.10;99.90
20372;DHT22;42924;37.564;-122.048;2022-07-29T04:28:22;30.10;99.90
20372;DHT22;42924;37.564;-122.048;2022-07-29T04:30:55;30.00;99.90
20372;DHT22;42924;37.564;-122.048;2022-07-29T04:33:26;30.00;99.90
20372;DHT22;42924;37.564;-122.048;2022-07-29T04:35:56;29.90;99.90
20372;DHT22;42924;37.564;-122.048;2022-07-29T04:38:29;29.90;99.90
20372;DHT22;42924;37.564;-122.048;2022-07-29T04:41:00;29.90;99.90
20372;DHT22;42924;37.564;-122.048;2022-07-29T04:43:31;29.80;99.90
20372;DHT22;42924;37.564;-122.048;2022-07-29T04:46:06;29.80;99.90
20372;DHT22;42924;37.564;-122.048;2022-07-29T04:48:38;29.70;99.90
20372;DHT22;42924;37.564;-122.048;2022-07-29T04:51:08;29.60;99.90
20372;DHT22;42924;37.564;-122.048;2022-07-29T04:53:47;29.60;99.90
20372;DHT22;42924;37.564;-122.048;2022-07-29T04:56:17;29.60;99.90
20372;DHT22;42924;37.564;-122.048;2022-07-29T04:58:48;29.50;99.90
20372;DHT22;42924;37.564;-122.048;2022-07-29T05:01:19;29.50;99.90
20372;DHT22;42924;37.564;-122.048;2022-07-29T05:03:49;29.40;99.90
20372;DHT22;42924;37.564;-122.048;2022-07-29T05:06:26;29.40;99.90
20372;DHT22;42924;37.564;-122.048;2022-07-29T05:08:58;29.40;99.90
20372;DHT22;42924;37.564;-122.048;2022-07-29T05:11:30;29.40;99.90
20372;DHT22;42924;37.564;-122.048;2022-07-29T05:14:00;29.30;99.90
20372;DHT22;42924;37.564;-122.048;2022-07-29T05:16:31;29.10;99.90
20372;DHT22;42924;37.564;-122.048;2022-07-29T05:19:02;29.30;99.90
20372;DHT22;42924;37.564;-122.048;2022-07-29T05:21:41;29.10;99.90
20372;DHT22;42924;37.564;-122.048;2022-07-29T05:24:11;29.00;99.90
20372;DHT22;42924;37.564;-122.048;2022-07-29T05:26:44;28.90;99.90
20372;DHT22;42924;37.564;-122.048;2022-07-29T05:29:15;28.90;99.90
20372;DHT22;42924;37.564;-122.048;2022-07-29T05:32:06;28.80;99.90
20372;DHT22;42924;37.564;-122.048;2022-07-29T05:34:37;28.90;99.90
20372;DHT22;42924;37.564;-122.048;2022-07-29T05:37:21;28.90;99.90
20372;DHT22;42924;37.564;-122.048;2022-07-29T05:39:51;28.80;99.90
20372;DHT22;42924;37.564;-122.048;2022-07-29T05:42:26;28.80;99.90
20372;DHT22;42924;37.564;-122.048;2022-07-29T05:44:56;28.70;99.90
20372;DHT22;42924;37.564;-122.048;2022-07-29T05:47:26;28.70;99.90
20372;DHT22;42924;37.564;-122.048;2022-07-29T05:50:02;28.70;99.90
20372;DHT22;42924;37.564;-122.048;2022-07-29T05:52:34;28.50;99.90
20372;DHT22;42924;37.564;-122.048;2022-07-29T05:55:06;28.60;99.90
20372;DHT22;42924;37.564;-122.048;2022-07-29T05:57:37;28.50;99.90
20372;DHT22;42924;37.564;-122.048;2022-07-29T06:00:12;28.50;99.90
20372;DHT22;42924;37.564;-122.048;2022-07-29T06:02:42;28.50;99.90
20372;DHT22;42924;37.564;-122.048;2022-07-29T06:05:14;28.50;99.90
20372;DHT22;42924;37.564;-122.048;2022-07-29T06:07:47;28.50;99.90
20372;DHT22;42924;37.564;-122.048;2022-07-29T06:10:50;28.40;99.90
20372;DHT22;42924;37.564;-122.048;2022-07-29T06:13:24;28.40;99.90
20372;DHT22;42924;37.564;-122.048;2022-07-29T06:15:55;28.30;99.90
20372;DHT22;42924;37.564;-122.048;2022-07-29T06:18:26;28.20;99.90
20372;DHT22;42924;37.564;-122.048;2022-07-29T06:20:56;28.10;99.90
20372;DHT22;42924;37.564;-122.048;2022-07-29T06:23:27;28.10;99.90
20372;DHT22;42924;37.564;-122.048;2022-07-29T06:25:56;28.20;99.90
20372;DHT22;42924;37.564;-122.048;2022-07-29T06:28:26;28.20;99.90
20372;DHT22;42924;37.564;-122.048;2022-07-29T06:31:00;28.00;99.90
20372;DHT22;42924;37.564;-122.048;2022-07-29T06:33:34;28.10;99.90
20372;DHT22;42924;37.564;-122.048;2022-07-29T06:36:05;27.90;99.90
20372;DHT22;42924;37.564;-122.048;2022-07-29T06:38:39;27.80;99.90
20372;DHT22;42924;37.564;-122.048;2022-07-29T06:41:21;27.90;99.90
20372;DHT22;42924;37.564;-122.048;2022-07-29T06:43:52;27.80;99.90
20372;DHT22;42924;37.564;-122.048;2022-07-29T06:46:24;27.80;99.90
20372;DHT22;42924;37.564;-122.048;2022-07-29T06:48:57;27.70;99.90
20372;DHT22;42924;37.564;-122.048;2022-07-29T06:51:33;27.70;99.90
20372;DHT22;42924;37.564;-122.048;2022-07-29T06:54:03;27.70;99.90
20372;DHT22;42924;37.564;-122.048;2022-07-29T06:56:35;27.60;99.90
20372;DHT22;42924;37.564;-122.048;2022-07-29T06:59:12;27.60;99.90
20372;DHT22;42924;37.564;-122.048;2022-07-29T07:01:46;27.60;99.90
20372;DHT22;42924;37.564;-122.048;2022-07-29T07:04:20;27.60;99.90
20372;DHT22;42924;37.564;-122.048;2022-07-29T07:06:50;27.50;99.90
20372;DHT22;42924;37.564;-122.048;2022-07-29T07:09:20;27.50;99.90
20372;DHT22;42924;37.564;-122.048;2022-07-29T07:12:07;27.50;99.90
20372;DHT22;42924;37.564;-122.048;2022-07-29T07:14:36;27.50;99.90
20372;DHT22;42924;37.564;-122.048;2022-07-29T07:17:08;27.50;99.90
20372;DHT22;42924;37.564;-122.048;2022-07-29T07:19:41;27.40;99.90
20372;DHT22;42924;37.564;-122.048;2022-07-29T07:22:11;27.40;99.90
20372;DHT22;42924;37.564;-122.048;2022-07-29T07:24:42;27.40;99.90
20372;DHT22;42924;37.564;-122.048;2022-07-29T07:27:13;27.40;99.90
20372;DHT22;42924;37.564;-122.048;2022-07-29T07:29:44;27.30;99.90
20372;DHT22;42924;37.564;-122.048;2022-07-29T07:32:15;27.30;99.90
20372;DHT22;42924;37.564;-122.048;2022-07-29T07:34:50;27.20;99.90
20372;DHT22;42924;37.564;-122.048;2022-07-29T07:37:21;27.10;99.90
20372;DHT22;42924;37.564;-122.048;2022-07-29T07:39:55;27.20;99.90
20372;DHT22;42924;37.564;-122.048;2022-07-29T07:42:29;27.10;99.90
20372;DHT22;42924;37.564;-122.048;2022-07-29T07:45:01;27.20;99.90
20372;DHT22;42924;37.564;-122.048;2022-07-29T07:47:41;27.20;99.90
20372;DHT22;42924;37.564;-122.048;2022-07-29T07:50:12;27.20;99.90
20372;DHT22;42924;37.564;-122.048;2022-07-29T07:52:50;27.30;99.90
20372;DHT22;42924;37.564;-122.048;2022-07-29T07:55:24;27.20;99.90
20372;DHT22;42924;37.564;-122.048;2022-07-29T07:57:57;27.10;99.90
20372;DHT22;42924;37.564;-122.048;2022-07-29T08:00:27;27.00;99.90
20372;DHT22;42924;37.564;-122.048;2022-07-29T08:03:01;27.00;99.90
20372;DHT22;42924;37.564;-122.048;2022-07-29T08:05:45;27.10;99.90
20372;DHT22;42924;37.564;-122.048;2022-07-29T08:08:16;27.00;99.90
20372;DHT22;42924;37.564;-122.048;2022-07-29T08:10:47;27.10;99.90
20372;DHT22;42924;37.564;-122.048;2022-07-29T08:13:38;27.00;99.90
20372;DHT22;42924;37.564;-122.048;2022-07-29T08:16:09;26.90;99.90
20372;DHT22;42924;37.564;-122.048;2022-07-29T08:18:43;26.80;99.90
20372;DHT22;42924;37.564;-122.048;2022-07-29T08:21:15;26.80;99.90
20372;DHT22;42924;37.564;-122.048;2022-07-29T08:23:45;26.80;99.90
20372;DHT22;42924;37.564;-122.048;2022-07-29T08:26:27;26.80;99.90
20372;DHT22;42924;37.564;-122.048;2022-07-29T08:28:58;26.80;99.90
20372;DHT22;42924;37.564;-122.048;2022-07-29T08:31:30;26.80;99.90
20372;DHT22;42924;37.564;-122.048;2022-07-29T08:34:04;26.70;99.90
20372;DHT22;42924;37.564;-122.048;2022-07-29T08:36:34;26.70;99.90
20372;DHT22;42924;37.564;-122.048;2022-07-29T08:39:08;26.70;99.90
20372;DHT22;42924;37.564;-122.048;2022-07-29T08:41:43;26.80;99.90
20372;DHT22;42924;37.564;-122.048;2022-07-29T08:44:24;26.80;99.90
20372;DHT22;42924;37.564;-122.048;2022-07-29T08:46:59;26.70;99.90
20372;DHT22;42924;37.564;-122.048;2022-07-29T08:49:34;26.70;99.90
20372;DHT22;42924;37.564;-122.048;2022-07-29T08:52:10;26.60;99.90
20372;DHT22;42924;37.564;-122.048;2022-07-29T08:54:43;26.60;99.90
20372;DHT22;42924;37.564;-122.048;2022-07-29T08:57:14;26.60;99.90
20372;DHT22;42924;37.564;-122.048;2022-07-29T08:59:46;26.50;99.90
20372;DHT22;42924;37.564;-122.048;2022-07-29T09:02:21;26.50;99.90
20372;DHT22;42924;37.564;-122.048;2022-07-29T09:04:52;26.40;99.90
20372;DHT22;42924;37.564;-122.048;2022-07-29T09:07:25;26.50;99.90
20372;DHT22;42924;37.564;-122.048;2022-07-29T09:10:04;26.50;99.90
20372;DHT22;42924;37.564;-122.048;2022-07-29T09:12:38;26.50;99.90
20372;DHT22;42924;37.564;-122.048;2022-07-29T09:15:10;26.50;99.90
20372;DHT22;42924;37.564;-122.048;2022-07-29T09:17:42;26.40;99.90
20372;DHT22;42924;37.564;-122.048;2022-07-29T09:20:20;26.40;99.90
20372;DHT22;42924;37.564;-122.048;2022-07-29T09:22:52;26.40;99.90
20372;DHT22;42924;37.564;-122.048;2022-07-29T09:25:35;26.30;99.90
20372;DHT22;42924;37.564;-122.048;2022-07-29T09:28:13;26.40;99.90
20372;DHT22;42924;37.564;-122.048;2022-07-29T09:30:57;26.30;99.90
20372;DHT22;42924;37.564;-122.048;2022-07-29T09:33:36;26.30;99.90
20372;DHT22;42924;37.564;-122.048;2022-07-29T09:36:09;26.30;99.90
20372;DHT22;42924;37.564;-122.048;2022-07-29T09:38:57;26.30;99.90
20372;DHT22;42924;37.564;-122.048;2022-07-29T09:41:30;26.40;99.90
20372;DHT22;42924;37.564;-122.048;2022-07-29T09:44:17;26.40;99.90
20372;DHT22;42924;37.564;-122.048;2022-07-29T09:49:27;26.30;99.90
20372;DHT22;42924;37.564;-122.048;2022-07-29T09:52:03;26.20;99.90
20372;DHT22;42924;37.564;-122.048;2022-07-29T09:54:33;26.30;99.90
20372;DHT22;42924;37.564;-122.048;2022-07-29T09:57:25;26.30;99.90
20372;DHT22;42924;37.564;-122.048;2022-07-29T10:00:02;26.30;99.90
20372;DHT22;42924;37.564;-122.048;2022-07-29T10:02:40;26.30;99.90
20372;DHT22;42924;37.564;-122.048;2022-07-29T10:05:27;26.30;99.90
20372;DHT22;42924;37.564;-122.048;2022-07-29T10:08:05;26.20;99.90
20372;DHT22;42924;37.564;-122.048;2022-07-29T10:10:43;26.10;99.90
20372;DHT22;42924;37.564;-122.048;2022-07-29T10:13:14;26.20;99.90
20372;DHT22;42924;37.564;-122.048;2022-07-29T10:15:46;26.20;99.90
20372;DHT22;42924;37.564;-122.048;2022-07-29T10:18:20;26.00;99.90
20372;DHT22;42924;37.564;-122.048;2022-07-29T10:20:53;26.10;99.90
20372;DHT22;42924;37.564;-122.048;2022-07-29T10:23:26;26.10;99.90
20372;DHT22;42924;37.564;-122.048;2022-07-29T10:26:15;26.00;99.90
20372;DHT22;42924;37.564;-122.048;2022-07-29T10:28:46;26.10;99.90
20372;DHT22;42924;37.564;-122.048;2022-07-29T10:31:27;26.10;99.90
20372;DHT22;42924;37.564;-122.048;2022-07-29T10:34:54;26.10;99.90
20372;DHT22;42924;37.564;-122.048;2022-07-29T10:37:09;26.10;99.90
20372;DHT22;42924;37.564;-122.048;2022-07-29T10:40:22;26.00;99.90
20372;DHT22;42924;37.564;-122.048;2022-07-29T10:43:28;26.00;99.90
20372;DHT22;42924;37.564;-122.048;2022-07-29T10:46:04;25.90;99.90
20372;DHT22;42924;37.564;-122.048;2022-07-29T10:49:03;26.00;99.90
20372;DHT22;42924;37.564;-122.048;2022-07-29T10:54:42;26.00;99.90
20372;DHT22;42924;37.564;-122.048;2022-07-29T11:02:45;25.90;99.90
20372;DHT22;42924;37.564;-122.048;2022-07-29T11:05:21;25.80;99.90
20372;DHT22;42924;37.564;-122.048;2022-07-29T11:08:16;25.80;99.90
20372;DHT22;42924;37.564;-122.048;2022-07-29T11:13:57;25.80;99.90
20372;DHT22;42924;37.564;-122.048;2022-07-29T11:16:59;25.80;99.90
20372;DHT22;42924;37.564;-122.048;2022-07-29T11:19:34;25.80;99.90
20372;DHT22;42924;37.564;-122.048;2022-07-29T11:22:09;25.80;99.90
20372;DHT22;42924;37.564;-122.048;2022-07-29T11:25:15;25.80;99.90
20372;DHT22;42924;37.564;-122.048;2022-07-29T11:27:45;25.80;99.90
20372;DHT22;42924;37.564;-122.048;2022-07-29T11:30:16;25.80;99.90
20372;DHT22;42924;37.564;-122.048;2022-07-29T11:32:54;25.70;99.90
20372;DHT22;42924;37.564;-122.048;2022-07-29T11:35:31;25.80;99.90
20372;DHT22;42924;37.564;-122.048;2022-07-29T11:38:25;25.80;99.90
20372;DHT22;42924;37.564;-122.048;2022-07-29T11:41:22;25.70;99.90
20372;DHT22;42924;37.564;-122.048;2022-07-29T11:43:58;25.70;99.90
20372;DHT22;42924;37.564;-122.048;2022-07-29T11:46:49;25.70;99.90
20372;DHT22;42924;37.564;-122.048;2022-07-29T11:49:27;25.70;99.90
20372;DHT22;42924;37.564;-122.048;2022-07-29T11:52:00;25.80;99.90
20372;DHT22;42924;37.564;-122.048;2022-07-29T11:54:34;25.70;99.90
20372;DHT22;42924;37.564;-122.048;2022-07-29T11:57:25;25.70;99.90
20372;DHT22;42924;37.564;-122.048;2022-07-29T12:00:09;25.70;99.90
20372;DHT22;42924;37.564;-122.048;2022-07-29T12:02:45;25.60;99.90
20372;DHT22;42924;37.564;-122.048;2022-07-29T12:05:17;25.70;99.90
20372;DHT22;42924;37.564;-122.048;2022-07-29T12:08:09;25.70;99.90
20372;DHT22;42924;37.564;-122.048;2022-07-29T12:10:43;25.70;99.90
20372;DHT22;42924;37.564;-122.048;2022-07-29T12:13:17;25.70;99.90
20372;DHT22;42924;37.564;-122.048;2022-07-29T12:15:54;25.70;99.90
20372;DHT22;42924;37.564;-122.048;2022-07-29T12:18:27;25.70;99.90
20372;DHT22;42924;37.564;-122.048;2022-07-29T12:21:02;25.80;99.90
20372;DHT22;42924;37.564;-122.048;2022-07-29T12:23:58;25.80;99.90
20372;DHT22;42924;37.564;-122.048;2022-07-29T12:26:52;25.80;99.90
20372;DHT22;42924;37.564;-122.048;2022-07-29T12:29:27;25.90;99.90
20372;DHT22;42924;37.564;-122.048;2022-07-29T12:32:04;25.80;99.90
20372;DHT22;42924;37.564;-122.048;2022-07-29T12:34:47;25.90;99.90
20372;DHT22;42924;37.564;-122.048;2022-07-29T12:37:19;26.00;99.90
20372;DHT22;42924;37.564;-122.048;2022-07-29T12:40:14;26.00;99.90
20372;DHT22;42924;37.564;-122.048;2022-07-29T12:43:06;26.00;99.90
20372;DHT22;42924;37.564;-122.048;2022-07-29T12:45:42;26.00;99.90
20372;DHT22;42924;37.564;-122.048;2022-07-29T12:48:13;26.20;99.90
20372;DHT22;42924;37.564;-122.048;2022-07-29T12:51:03;26.20;99.90
20372;DHT22;42924;37.564;-122.048;2022-07-29T12:53:35;26.20;99.90
20372;DHT22;42924;37.564;-122.048;2022-07-29T12:56:09;26.30;99.90
20372;DHT22;42924;37.564;-122.048;2022-07-29T12:59:31;26.30;99.90
20372;DHT22;42924;37.564;-122.048;2022-07-29T13:02:06;26.30;99.90
20372;DHT22;42924;37.564;-122.048;2022-07-29T13:04:36;26.30;99.90
20372;DHT22;42924;37.564;-122.048;2022-07-29T13:07:07;26.20;99.90
20372;DHT22;42924;37.564;-122.048;2022-07-29T13:09:44;26.30;99.90
20372;DHT22;42924;37.564;-122.048;2022-07-29T13:12:15;26.30;99.90
20372;DHT22;42924;37.564;-122.048;2022-07-29T13:14:49;26.40;99.90
20372;DHT22;42924;37.564;-122.048;2022-07-29T13:17:23;26.50;99.90
20372;DHT22;42924;37.564;-122.048;2022-07-29T13:20:07;26.50;99.90
20372;DHT22;42924;37.564;-122.048;2022-07-29T13:22:47;26.50;99.90
20372;DHT22;42924;37.564;-122.048;2022-07-29T13:25:31;26.50;99.90
20372;DHT22;42924;37.564;-122.048;2022-07-29T13:28:02;26.70;99.90
20372;DHT22;42924;37.564;-122.048;2022-07-29T13:30:32;26.60;99.90
20372;DHT22;42924;37.564;-122.048;2022-07-29T13:33:03;26.70;99.90
20372;DHT22;42924;37.564;-122.048;2022-07-29T13:35:34;26.80;99.90
20372;DHT22;42924;37.564;-122.048;2022-07-29T13:38:08;26.90;99.90
20372;DHT22;42924;37.564;-122.048;2022-07-29T13:40:41;27.00;99.90
20372;DHT22;42924;37.564;-122.048;2022-07-29T13:43:12;27.10;99.90
20372;DHT22;42924;37.564;-122.048;2022-07-29T13:45:45;27.20;99.90
20372;DHT22;42924;37.564;-122.048;2022-07-29T13:48:18;27.20;99.90
20372;DHT22;42924;37.564;-122.048;2022-07-29T13:50:48;27.20;99.90
20372;DHT22;42924;37.564;-122.048;2022-07-29T13:53:19;27.20;99.90
20372;DHT22;42924;37.564;-122.048;2022-07-29T13:55:54;27.30;99.90
20372;DHT22;42924;37.564;-122.048;2022-07-29T13:58:27;27.40;99.90
20372;DHT22;42924;37.564;-122.048;2022-07-29T14:01:05;27.30;99.90
20372;DHT22;42924;37.564;-122.048;2022-07-29T14:03:41;27.40;99.90
20372;DHT22;42924;37.564;-122.048;2022-07-29T14:06:14;27.40;99.90
20372;DHT22;42924;37.564;-122.048;2022-07-29T14:08:46;27.50;99.90
20372;DHT22;42924;37.564;-122.048;2022-07-29T14:11:20;27.50;99.90
20372;DHT22;42924;37.564;-122.048;2022-07-29T14:13:51;27.70;99.90
20372;DHT22;42924;37.564;-122.048;2022-07-29T14:16:21;27.70;99.90
20372;DHT22;42924;37.564;-122.048;2022-07-29T14:18:51;27.80;99.90
20372;DHT22;42924;37.564;-122.048;2022-07-29T14:21:23;27.90;99.90
20372;DHT22;42924;37.564;-122.048;2022-07-29T14:23:56;28.00;99.90
20372;DHT22;42924;37.564;-122.048;2022-07-29T14:26:27;28.00;99.90
20372;DHT22;42924;37.564;-122.048;2022-07-29T14:28:56;28.10;99.90
20372;DHT22;42924;37.564;-122.048;2022-07-29T14:31:27;28.30;99.90
20372;DHT22;42924;37.564;-122.048;2022-07-29T14:33:59;28.20;99.90
20372;DHT22;42924;37.564;-122.048;2022-07-29T14:36:30;28.20;99.90
20372;DHT22;42924;37.564;-122.048;2022-07-29T14:39:00;28.30;99.90
20372;DHT22;42924;37.564;-122.048;2022-07-29T14:41:32;28.40;99.90
20372;DHT22;42924;37.564;-122.048;2022-07-29T14:44:02;28.50;99.90
20372;DHT22;42924;37.564;-122.048;2022-07-29T14:46:35;28.60;99.90
20372;DHT22;42924;37.564;-122.048;2022-07-29T14:49:08;28.60;99.90
20372;DHT22;42924;37.564;-122.048;2022-07-29T14:51:39;28.70;99.90
20372;DHT22;42924;37.564;-122.048;2022-07-29T14:54:10;28.70;99.90
20372;DHT22;42924;37.564;-122.048;2022-07-29T14:56:42;28.70;99.90
20372;DHT22;42924;37.564;-122.048;2022-07-29T14:59:15;28.80;99.90
20372;DHT22;42924;37.564;-122.048;2022-07-29T15:01:45;28.90;99.90
20372;DHT22;42924;37.564;-122.048;2022-07-29T15:04:16;28.90;99.90
20372;DHT22;42924;37.564;-122.048;2022-07-29T15:06:51;28.90;99.90
20372;DHT22;42924;37.564;-122.048;2022-07-29T15:09:25;29.10;99.90
20372;DHT22;42924;37.564;-122.048;2022-07-29T15:11:58;29.20;99.90
20372;DHT22;42924;37.564;-122.048;2022-07-29T15:14:28;29.30;99.90
20372;DHT22;42924;37.564;-122.048;2022-07-29T15:17:02;29.30;99.90
20372;DHT22;42924;37.564;-122.048;2022-07-29T15:19:34;29.30;99.90
20372;DHT22;42924;37.564;-122.048;2022-07-29T15:22:05;29.30;99.90
20372;DHT22;42924;37.564;-122.048;2022-07-29T15:24:35;29.40;99.90
20372;DHT22;42924;37.564;-122.048;2022-07-29T15:27:10;29.60;99.90
20372;DHT22;42924;37.564;-122.048;2022-07-29T15:29:44;29.60;99.90
20372;DHT22;42924;37.564;-122.048;2022-07-29T15:32:16;29.60;99.90
20372;DHT22;42924;37.564;-122.048;2022-07-29T15:34:47;29.60;99.90
20372;DHT22;42924;37.564;-122.048;2022-07-29T15:37:18;29.70;99.90
20372;DHT22;42924;37.564;-122.048;2022-07-29T15:39:49;29.80;99.90
20372;DHT22;42924;37.564;-122.048;2022-07-29T15:42:27;29.80;99.90
20372;DHT22;42924;37.564;-122.048;2022-07-29T15:44:57;29.90;99.90
20372;DHT22;42924;37.564;-122.048;2022-07-29T15:47:32;30.00;99.90
20372;DHT22;42924;37.564;-122.048;2022-07-29T15:50:09;30.00;99.90
20372;DHT22;42924;37.564;-122.048;2022-07-29T15:52:44;30.10;99.90
20372;DHT22;42924;37.564;-122.048;2022-07-29T15:55:18;30.10;99.90
20372;DHT22;42924;37.564;-122.048;2022-07-29T15:57:53;30.30;99.90
20372;DHT22;42924;37.564;-122.048;2022-07-29T16:00:28;30.20;99.90
20372;DHT22;42924;37.564;-122.048;2022-07-29T16:03:00;30.30;99.90